sensor_id;sensor_type;location;lat;lon;timestamp;pressure;altitude;pressure_sealevel;temperature;humidity
9225;BME280;4647;48.072;11.616;2023-04-05T00:01:21;95655.88;;;-3.87;76.04
9225;BME280;4647;48.072;11.616;2023-04-05T00:03:50;95649.81;;;-3.79;75.91
9225;BME280;4647;48.072;11.616;2023-04-05T00:06:19;95654.97;;;-3.74;76.41
9225;BME280;4647;48.072;11.616;2023-04-05T00:08:53;95646.22;;;-3.83;75.98
9225;BME280;4647;48.072;11.616;2023-04-05T00:11:22;95640.16;;;-3.92;76.24
9225;BME280;4647;48.072;11.616;2023-04-05T00:13:51;95645.72;;;-4.03;76.91
9225;BME280;4647;48.072;11.616;2023-04-05T00:16:20;95641.19;;;-4.11;77.01
9225;BME280;4647;48.072;11.616;2023-04-05T00:18:48;95636.66;;;-4.10;77.51
9225;BME280;4647;48.072;11.616;2023-04-05T00:21:17;95635.78;;;-3.97;76.90
9225;BME280;4647;48.072;11.616;2023-04-05T00:23:54;95635.31;;;-3.90;76.68
9225;BME280;4647;48.072;11.616;2023-04-05T00:26:23;95639.22;;;-3.88;76.87
9225;BME280;4647;48.072;11.616;2023-04-05T00:28:52;95630.16;;;-4.04;76.97
9225;BME280;4647;48.072;11.616;2023-04-05T00:31:20;95632.31;;;-4.06;77.59
9225;BME280;4647;48.072;11.616;2023-04-05T00:33:49;95618.16;;;-4.10;77.49
9225;BME280;4647;48.072;11.616;2023-04-05T00:36:18;95632.53;;;-3.94;76.96
9225;BME280;4647;48.072;11.616;2023-04-05T00:38:47;95624.84;;;-4.04;76.76
9225;BME280;4647;48.072;11.616;2023-04-05T00:41:19;95619.22;;;-4.20;77.36
9225;BME280;4647;48.072;11.616;2023-04-05T00:43:47;95631.84;;;-4.17;77.22
9225;BME280;4647;48.072;11.616;2023-04-05T00:46:16;95624.38;;;-4.15;77.20
9225;BME280;4647;48.072;11.616;2023-04-05T00:48:45;95620.63;;;-4.14;77.00
9225;BME280;4647;48.072;11.616;2023-04-05T00:51:13;95620.16;;;-4.24;77.24
9225;BME280;4647;48.072;11.616;2023-04-05T00:53:42;95613.09;;;-4.29;77.60
9225;BME280;4647;48.072;11.616;2023-04-05T00:56:12;95602.97;;;-4.36;77.80
9225;BME280;4647;48.072;11.616;2023-04-05T00:58:45;95611.91;;;-4.23;77.64
9225;BME280;4647;48.072;11.616;2023-04-05T01:01:17;95603.81;;;-4.18;77.62
9225;BME280;4647;48.072;11.616;2023-04-05T01:03:50;95603.50;;;-4.25;77.34
9225;BME280;4647;48.072;11.616;2023-04-05T01:06:40;95606.88;;;-4.33;77.83
9225;BME280;4647;48.072;11.616;2023-04-05T01:09:19;95602.22;;;-4.36;78.14
9225;BME280;4647;48.072;11.616;2023-04-05T01:11:53;95604.09;;;-4.28;78.13
9225;BME280;4647;48.072;11.616;2023-04-05T01:14:26;95594.88;;;-4.39;78.14
9225;BME280;4647;48.072;11.616;2023-04-05T01:16:55;95597.44;;;-4.25;77.98
9225;BME280;4647;48.072;11.616;2023-04-05T01:19:26;95600.84;;;-4.25;77.73
9225;BME280;4647;48.072;11.616;2023-04-05T01:22:16;95591.16;;;-4.29;77.82
9225;BME280;4647;48.072;11.616;2023-04-05T01:25:12;95589.00;;;-4.27;77.63
9225;BME280;4647;48.072;11.616;2023-04-05T01:28:12;95592.09;;;-4.43;78.23
9225;BME280;4647;48.072;11.616;2023-04-05T01:30:48;95586.44;;;-4.50;78.51
9225;BME280;4647;48.072;11.616;2023-04-05T01:33:25;95567.28;;;-4.64;79.05
9225;BME280;4647;48.072;11.616;2023-04-05T01:36:00;95581.91;;;-4.58;79.24
9225;BME280;4647;48.072;11.616;2023-04-05T01:38:31;95573.53;;;-4.51;79.37
9225;BME280;4647;48.072;11.616;2023-04-05T01:41:00;95570.00;;;-4.47;79.01
9225;BME280;4647;48.072;11.616;2023-04-05T01:43:29;95567.97;;;-4.41;78.84
9225;BME280;4647;48.072;11.616;2023-04-05T01:46:00;95572.34;;;-4.37;78.65
9225;BME280;4647;48.072;11.616;2023-04-05T01:48:28;95563.47;;;-4.41;78.42
9225;BME280;4647;48.072;11.616;2023-04-05T01:50:57;95567.81;;;-4.36;78.57
9225;BME280;4647;48.072;11.616;2023-04-05T01:53:25;95575.59;;;-4.40;78.73
9225;BME280;4647;48.072;11.616;2023-04-05T01:55:58;95568.59;;;-4.44;78.70
9225;BME280;4647;48.072;11.616;2023-04-05T01:58:27;95566.69;;;-4.52;79.17
9225;BME280;4647;48.072;11.616;2023-04-05T02:00:56;95561.22;;;-4.56;79.02
9225;BME280;4647;48.072;11.616;2023-04-05T02:03:27;95561.69;;;-4.54;79.18
9225;BME280;4647;48.072;11.616;2023-04-05T02:05:56;95562.63;;;-4.58;79.74
9225;BME280;4647;48.072;11.616;2023-04-05T02:08:25;95557.63;;;-4.69;79.67
9225;BME280;4647;48.072;11.616;2023-04-05T02:10:53;95548.91;;;-4.69;79.59
9225;BME280;4647;48.072;11.616;2023-04-05T02:13:21;95551.41;;;-4.64;79.54
9225;BME280;4647;48.072;11.616;2023-04-05T02:15:50;95557.47;;;-4.72;79.43
9225;BME280;4647;48.072;11.616;2023-04-05T02:18:19;95553.53;;;-4.75;79.52
9225;BME280;4647;48.072;11.616;2023-04-05T02:21:00;95545.31;;;-4.73;79.80
9225;BME280;4647;48.072;11.616;2023-04-05T02:23:29;95539.59;;;-4.67;79.55
9225;BME280;4647;48.072;11.616;2023-04-05T02:25:58;95543.97;;;-4.62;79.55
9225;BME280;4647;48.072;11.616;2023-04-05T02:28:27;95542.53;;;-4.68;79.83
9225;BME280;4647;48.072;11.616;2023-04-05T02:30:55;95549.25;;;-4.62;79.62
9225;BME280;4647;48.072;11.616;2023-04-05T02:33:24;95545.34;;;-4.65;79.38
9225;BME280;4647;48.072;11.616;2023-04-05T02:35:56;95543.19;;;-4.63;79.67
9225;BME280;4647;48.072;11.616;2023-04-05T02:38:24;95534.78;;;-4.65;79.67
9225;BME280;4647;48.072;11.616;2023-04-05T02:40:53;95539.59;;;-4.67;79.46
9225;BME280;4647;48.072;11.616;2023-04-05T02:43:21;95529.44;;;-4.73;79.81
9225;BME280;4647;48.072;11.616;2023-04-05T02:45:50;95529.59;;;-4.78;79.72
9225;BME280;4647;48.072;11.616;2023-04-05T02:48:18;95535.22;;;-4.71;79.35
9225;BME280;4647;48.072;11.616;2023-04-05T02:50:47;95530.28;;;-4.64;79.33
9225;BME280;4647;48.072;11.616;2023-04-05T02:53:18;95529.81;;;-4.66;79.67
9225;BME280;4647;48.072;11.616;2023-04-05T02:55:51;95527.31;;;-4.71;79.69
9225;BME280;4647;48.072;11.616;2023-04-05T02:58:20;95526.03;;;-4.74;79.78
9225;BME280;4647;48.072;11.616;2023-04-05T03:00:49;95527.88;;;-4.83;79.89
9225;BME280;4647;48.072;11.616;2023-04-05T03:03:19;95533.44;;;-4.93;81.24
9225;BME280;4647;48.072;11.616;2023-04-05T03:05:55;95524.72;;;-4.93;81.11
9225;BME280;4647;48.072;11.616;2023-04-05T03:08:27;95528.63;;;-4.91;81.09
9225;BME280;4647;48.072;11.616;2023-04-05T03:10:57;95526.16;;;-4.87;80.69
9225;BME280;4647;48.072;11.616;2023-04-05T03:13:25;95516.91;;;-4.99;80.55
9225;BME280;4647;48.072;11.616;2023-04-05T03:15:53;95532.38;;;-4.83;80.27
9225;BME280;4647;48.072;11.616;2023-04-05T03:18:22;95519.16;;;-4.83;80.00
9225;BME280;4647;48.072;11.616;2023-04-05T03:20:52;95518.59;;;-5.03;80.19
9225;BME280;4647;48.072;11.616;2023-04-05T03:23:21;95519.69;;;-5.04;80.32
9225;BME280;4647;48.072;11.616;2023-04-05T03:25:57;95517.28;;;-4.91;79.85
9225;BME280;4647;48.072;11.616;2023-04-05T03:28:26;95511.03;;;-4.96;80.38
9225;BME280;4647;48.072;11.616;2023-04-05T03:30:56;95508.81;;;-5.02;80.18
9225;BME280;4647;48.072;11.616;2023-04-05T03:33:25;95515.81;;;-4.98;79.78
9225;BME280;4647;48.072;11.616;2023-04-05T03:35:53;95521.56;;;-5.04;79.71
9225;BME280;4647;48.072;11.616;2023-04-05T03:38:22;95520.06;;;-4.97;79.38
9225;BME280;4647;48.072;11.616;2023-04-05T03:40:55;95516.09;;;-5.08;79.69
9225;BME280;4647;48.072;11.616;2023-04-05T03:43:23;95514.84;;;-5.10;79.65
9225;BME280;4647;48.072;11.616;2023-04-05T03:45:52;95508.78;;;-5.11;79.70
9225;BME280;4647;48.072;11.616;2023-04-05T03:48:20;95510.78;;;-5.16;80.04
9225;BME280;4647;48.072;11.616;2023-04-05T03:50:49;95508.63;;;-5.14;79.99
9225;BME280;4647;48.072;11.616;2023-04-05T03:53:17;95515.63;;;-5.10;79.77
9225;BME280;4647;48.072;11.616;2023-04-05T03:55:45;95515.94;;;-5.11;79.60
9225;BME280;4647;48.072;11.616;2023-04-05T03:58:17;95513.47;;;-5.08;79.63
9225;BME280;4647;48.072;11.616;2023-04-05T04:00:45;95517.97;;;-5.08;79.54
9225;BME280;4647;48.072;11.616;2023-04-05T04:03:14;95515.50;;;-5.05;79.14
9225;BME280;4647;48.072;11.616;2023-04-05T04:05:43;95519.22;;;-5.06;79.11
9225;BME280;4647;48.072;11.616;2023-04-05T04:08:11;95506.19;;;-5.02;79.12
9225;BME280;4647;48.072;11.616;2023-04-05T04:10:40;95504.75;;;-5.08;79.41
9225;BME280;4647;48.072;11.616;2023-04-05T04:13:08;95504.25;;;-5.19;79.75
9225;BME280;4647;48.072;11.616;2023-04-05T04:15:39;95516.41;;;-5.09;79.90
9225;BME280;4647;48.072;11.616;2023-04-05T04:18:07;95506.63;;;-5.09;79.74
9225;BME280;4647;48.072;11.616;2023-04-05T04:20:36;95511.13;;;-5.09;79.65
9225;BME280;4647;48.072;11.616;2023-04-05T04:23:05;95505.84;;;-5.09;79.93
9225;BME280;4647;48.072;11.616;2023-04-05T04:25:34;95497.00;;;-5.05;80.06
9225;BME280;4647;48.072;11.616;2023-04-05T04:28:03;95504.94;;;-5.05;79.58
9225;BME280;4647;48.072;11.616;2023-04-05T04:30:34;95503.34;;;-5.14;80.43
9225;BME280;4647;48.072;11.616;2023-04-05T04:33:05;95509.28;;;-5.09;79.90
9225;BME280;4647;48.072;11.616;2023-04-05T04:35:34;95512.38;;;-5.07;79.62
9225;BME280;4647;48.072;11.616;2023-04-05T04:38:04;95517.94;;;-5.17;79.62
9225;BME280;4647;48.072;11.616;2023-04-05T04:40:33;95510.91;;;-5.21;79.71
9225;BME280;4647;48.072;11.616;2023-04-05T04:43:03;95509.84;;;-5.20;80.11
9225;BME280;4647;48.072;11.616;2023-04-05T04:45:34;95506.59;;;-5.17;79.98
9225;BME280;4647;48.072;11.616;2023-04-05T04:48:06;95510.03;;;-5.17;80.26
9225;BME280;4647;48.072;11.616;2023-04-05T04:50:38;95506.78;;;-5.05;80.12
9225;BME280;4647;48.072;11.616;2023-04-05T04:53:07;95511.84;;;-4.86;80.37
9225;BME280;4647;48.072;11.616;2023-04-05T04:55:36;95511.59;;;-4.68;80.66
9225;BME280;4647;48.072;11.616;2023-04-05T04:58:06;95499.53;;;-4.43;82.13
9225;BME280;4647;48.072;11.616;2023-04-05T05:00:37;95511.56;;;-4.02;81.96
9225;BME280;4647;48.072;11.616;2023-04-05T05:03:11;95515.78;;;-3.75;79.58
9225;BME280;4647;48.072;11.616;2023-04-05T05:05:41;95507.03;;;-3.84;78.20
9225;BME280;4647;48.072;11.616;2023-04-05T05:08:11;95507.19;;;-4.15;78.30
9225;BME280;4647;48.072;11.616;2023-04-05T05:10:39;95509.22;;;-4.21;77.88
9225;BME280;4647;48.072;11.616;2023-04-05T05:13:08;95506.56;;;-4.12;78.29
9225;BME280;4647;48.072;11.616;2023-04-05T05:15:38;95513.72;;;-4.04;77.80
9225;BME280;4647;48.072;11.616;2023-04-05T05:18:06;95507.06;;;-4.02;77.51
9225;BME280;4647;48.072;11.616;2023-04-05T05:20:39;95504.09;;;-4.00;77.70
9225;BME280;4647;48.072;11.616;2023-04-05T05:23:07;95514.38;;;-3.90;77.67
9225;BME280;4647;48.072;11.616;2023-04-05T05:25:36;95507.06;;;-3.76;77.24
9225;BME280;4647;48.072;11.616;2023-04-05T05:28:04;95502.38;;;-3.79;77.27
9225;BME280;4647;48.072;11.616;2023-04-05T05:30:33;95506.09;;;-3.54;76.76
9225;BME280;4647;48.072;11.616;2023-04-05T05:33:01;95488.34;;;-3.62;76.46
9225;BME280;4647;48.072;11.616;2023-04-05T05:35:30;95512.00;;;-3.48;76.39
9225;BME280;4647;48.072;11.616;2023-04-05T05:38:01;95512.16;;;-3.45;76.20
9225;BME280;4647;48.072;11.616;2023-04-05T05:40:30;95517.88;;;-3.34;75.56
9225;BME280;4647;48.072;11.616;2023-04-05T05:42:58;95513.34;;;-3.16;75.39
9225;BME280;4647;48.072;11.616;2023-04-05T05:45:26;95523.28;;;-3.04;75.17
9225;BME280;4647;48.072;11.616;2023-04-05T05:47:55;95519.47;;;-2.86;74.24
9225;BME280;4647;48.072;11.616;2023-04-05T05:50:23;95519.59;;;-2.74;74.08
9225;BME280;4647;48.072;11.616;2023-04-05T05:52:52;95524.53;;;-2.64;72.95
9225;BME280;4647;48.072;11.616;2023-04-05T05:55:23;95526.69;;;-2.57;72.05
9225;BME280;4647;48.072;11.616;2023-04-05T05:57:51;95526.97;;;-2.50;71.73
9225;BME280;4647;48.072;11.616;2023-04-05T06:00:20;95527.69;;;-2.41;71.17
9225;BME280;4647;48.072;11.616;2023-04-05T06:02:49;95532.06;;;-2.16;71.04
9225;BME280;4647;48.072;11.616;2023-04-05T06:05:18;95535.03;;;-1.88;70.19
9225;BME280;4647;48.072;11.616;2023-04-05T06:07:46;95520.56;;;-1.99;68.72
9225;BME280;4647;48.072;11.616;2023-04-05T06:10:15;95526.22;;;-1.79;68.42
9225;BME280;4647;48.072;11.616;2023-04-05T06:12:46;95526.66;;;-1.77;68.52
9225;BME280;4647;48.072;11.616;2023-04-05T06:15:15;95526.78;;;-1.53;67.50
9225;BME280;4647;48.072;11.616;2023-04-05T06:17:43;95538.41;;;-1.25;67.16
9225;BME280;4647;48.072;11.616;2023-04-05T06:20:12;95539.56;;;-1.13;65.88
9225;BME280;4647;48.072;11.616;2023-04-05T06:22:40;95530.03;;;-1.14;65.73
9225;BME280;4647;48.072;11.616;2023-04-05T06:25:09;95538.47;;;-1.00;65.19
9225;BME280;4647;48.072;11.616;2023-04-05T06:27:38;95530.94;;;-0.98;65.03
9225;BME280;4647;48.072;11.616;2023-04-05T06:30:10;95538.84;;;-0.77;65.39
9225;BME280;4647;48.072;11.616;2023-04-05T06:32:39;95540.22;;;-0.59;65.47
9225;BME280;4647;48.072;11.616;2023-04-05T06:35:08;95540.72;;;-0.78;65.61
9225;BME280;4647;48.072;11.616;2023-04-05T06:37:36;95529.34;;;-0.54;65.48
9225;BME280;4647;48.072;11.616;2023-04-05T06:40:07;95534.13;;;-0.59;65.44
9225;BME280;4647;48.072;11.616;2023-04-05T06:42:36;95534.91;;;-0.47;64.96
9225;BME280;4647;48.072;11.616;2023-04-05T06:45:05;95537.31;;;-0.29;65.14
9225;BME280;4647;48.072;11.616;2023-04-05T06:47:38;95537.00;;;-0.28;65.20
9225;BME280;4647;48.072;11.616;2023-04-05T06:50:08;95539.88;;;-0.33;65.87
9225;BME280;4647;48.072;11.616;2023-04-05T06:52:37;95539.78;;;-0.12;65.78
9225;BME280;4647;48.072;11.616;2023-04-05T06:55:07;95546.50;;;0.10;65.44
9225;BME280;4647;48.072;11.616;2023-04-05T06:57:35;95540.38;;;0.21;65.10
9225;BME280;4647;48.072;11.616;2023-04-05T07:00:05;95531.25;;;0.35;64.63
9225;BME280;4647;48.072;11.616;2023-04-05T07:02:39;95533.03;;;0.30;64.20
9225;BME280;4647;48.072;11.616;2023-04-05T07:05:09;95536.03;;;0.29;63.59
9225;BME280;4647;48.072;11.616;2023-04-05T07:07:38;95533.44;;;0.45;63.84
9225;BME280;4647;48.072;11.616;2023-04-05T07:10:09;95534.75;;;0.51;62.93
9225;BME280;4647;48.072;11.616;2023-04-05T07:12:38;95534.88;;;0.70;63.16
9225;BME280;4647;48.072;11.616;2023-04-05T07:15:07;95532.22;;;0.70;62.37
9225;BME280;4647;48.072;11.616;2023-04-05T07:17:39;95531.66;;;0.77;62.25
9225;BME280;4647;48.072;11.616;2023-04-05T07:20:08;95536.47;;;1.15;61.64
9225;BME280;4647;48.072;11.616;2023-04-05T07:22:36;95528.59;;;0.90;61.34
9225;BME280;4647;48.072;11.616;2023-04-05T07:25:06;95525.91;;;0.90;60.79
9225;BME280;4647;48.072;11.616;2023-04-05T07:27:35;95517.34;;;1.13;60.82
9225;BME280;4647;48.072;11.616;2023-04-05T07:30:05;95535.19;;;1.40;60.19
9225;BME280;4647;48.072;11.616;2023-04-05T07:32:34;95529.59;;;1.45;59.35
9225;BME280;4647;48.072;11.616;2023-04-05T07:35:06;95525.16;;;1.84;58.87
9225;BME280;4647;48.072;11.616;2023-04-05T07:37:35;95527.69;;;1.93;57.55
9225;BME280;4647;48.072;11.616;2023-04-05T07:40:05;95529.88;;;2.07;57.32
9225;BME280;4647;48.072;11.616;2023-04-05T07:42:35;95536.50;;;2.13;56.09
9225;BME280;4647;48.072;11.616;2023-04-05T07:45:04;95529.59;;;2.12;55.55
9225;BME280;4647;48.072;11.616;2023-04-05T07:47:33;95529.53;;;2.08;55.03
9225;BME280;4647;48.072;11.616;2023-04-05T07:50:05;95537.94;;;2.26;54.96
9225;BME280;4647;48.072;11.616;2023-04-05T07:52:34;95536.41;;;2.44;54.68
9225;BME280;4647;48.072;11.616;2023-04-05T07:55:03;95536.78;;;2.62;53.64
9225;BME280;4647;48.072;11.616;2023-04-05T07:57:32;95549.50;;;2.50;53.94
9225;BME280;4647;48.072;11.616;2023-04-05T08:00:01;95545.28;;;2.87;53.50
9225;BME280;4647;48.072;11.616;2023-04-05T08:02:36;95540.97;;;2.83;51.37
9225;BME280;4647;48.072;11.616;2023-04-05T08:05:08;95552.19;;;2.88;51.16
9225;BME280;4647;48.072;11.616;2023-04-05T08:07:36;95543.16;;;2.77;50.84
9225;BME280;4647;48.072;11.616;2023-04-05T08:10:06;95557.03;;;2.83;51.09
9225;BME280;4647;48.072;11.616;2023-04-05T08:12:35;95511.06;;;2.58;49.62
9225;BME280;4647;48.072;11.616;2023-04-05T08:15:04;95550.41;;;2.96;49.91
9225;BME280;4647;48.072;11.616;2023-04-05T08:17:33;95546.59;;;2.97;48.80
9225;BME280;4647;48.072;11.616;2023-04-05T08:20:01;95539.34;;;3.39;48.32
9225;BME280;4647;48.072;11.616;2023-04-05T08:22:33;95533.44;;;3.53;48.15
9225;BME280;4647;48.072;11.616;2023-04-05T08:25:01;95519.78;;;3.35;48.52
9225;BME280;4647;48.072;11.616;2023-04-05T08:27:30;95512.91;;;3.15;48.27
9225;BME280;4647;48.072;11.616;2023-04-05T08:29:59;95536.72;;;3.43;48.99
9225;BME280;4647;48.072;11.616;2023-04-05T08:32:27;95525.28;;;3.69;49.00
9225;BME280;4647;48.072;11.616;2023-04-05T08:34:57;95541.84;;;3.75;47.43
9225;BME280;4647;48.072;11.616;2023-04-05T08:37:25;95542.03;;;3.62;47.56
9225;BME280;4647;48.072;11.616;2023-04-05T08:39:56;95540.88;;;3.18;49.48
9225;BME280;4647;48.072;11.616;2023-04-05T08:42:28;95545.72;;;3.31;49.51
9225;BME280;4647;48.072;11.616;2023-04-05T08:44:59;95538.47;;;3.32;47.92
9225;BME280;4647;48.072;11.616;2023-04-05T08:47:31;95442.53;;;2.92;46.79
9225;BME280;4647;48.072;11.616;2023-04-05T08:50:04;95526.25;;;3.34;46.30
9225;BME280;4647;48.072;11.616;2023-04-05T08:52:34;95542.13;;;3.24;46.85
9225;BME280;4647;48.072;11.616;2023-04-05T08:55:10;95559.75;;;3.25;46.49
9225;BME280;4647;48.072;11.616;2023-04-05T08:57:42;95536.56;;;3.55;44.86
9225;BME280;4647;48.072;11.616;2023-04-05T09:00:11;95538.38;;;3.74;44.88
9225;BME280;4647;48.072;11.616;2023-04-05T09:02:41;95539.88;;;4.24;43.83
9225;BME280;4647;48.072;11.616;2023-04-05T09:05:11;95543.06;;;4.30;43.11
9225;BME280;4647;48.072;11.616;2023-04-05T09:07:42;95539.84;;;4.21;43.04
9225;BME280;4647;48.072;11.616;2023-04-05T09:10:17;95546.88;;;4.59;40.63
9225;BME280;4647;48.072;11.616;2023-04-05T09:12:46;95546.19;;;4.66;41.01
9225;BME280;4647;48.072;11.616;2023-04-05T09:15:15;95544.53;;;4.54;39.75
9225;BME280;4647;48.072;11.616;2023-04-05T09:17:46;95540.44;;;4.97;39.71
9225;BME280;4647;48.072;11.616;2023-04-05T09:20:15;95543.88;;;5.31;40.35
9225;BME280;4647;48.072;11.616;2023-04-05T09:22:45;95540.03;;;5.73;38.38
9225;BME280;4647;48.072;11.616;2023-04-05T09:25:33;95545.66;;;6.01;36.01
9225;BME280;4647;48.072;11.616;2023-04-05T09:28:03;95540.94;;;5.91;36.72
9225;BME280;4647;48.072;11.616;2023-04-05T09:30:32;95531.69;;;6.40;37.53
9225;BME280;4647;48.072;11.616;2023-04-05T09:33:02;95536.38;;;6.54;35.25
9225;BME280;4647;48.072;11.616;2023-04-05T09:35:31;95528.38;;;6.71;35.39
9225;BME280;4647;48.072;11.616;2023-04-05T09:38:02;95544.94;;;6.77;36.09
9225;BME280;4647;48.072;11.616;2023-04-05T09:40:51;95539.03;;;6.50;34.59
9225;BME280;4647;48.072;11.616;2023-04-05T09:43:35;95542.25;;;6.73;34.62
9225;BME280;4647;48.072;11.616;2023-04-05T09:46:04;95531.06;;;6.68;35.33
9225;BME280;4647;48.072;11.616;2023-04-05T09:48:50;95543.47;;;6.90;35.66
9225;BME280;4647;48.072;11.616;2023-04-05T09:51:19;95537.25;;;6.79;35.84
9225;BME280;4647;48.072;11.616;2023-04-05T09:53:58;95532.47;;;6.44;35.65
9225;BME280;4647;48.072;11.616;2023-04-05T09:56:30;95533.41;;;6.76;35.19
9225;BME280;4647;48.072;11.616;2023-04-05T09:58:59;95532.88;;;6.50;36.20
9225;BME280;4647;48.072;11.616;2023-04-05T10:01:32;95531.19;;;7.00;34.80
9225;BME280;4647;48.072;11.616;2023-04-05T10:04:01;95534.63;;;6.97;35.57
9225;BME280;4647;48.072;11.616;2023-04-05T10:06:38;95537.34;;;7.04;35.05
9225;BME280;4647;48.072;11.616;2023-04-05T10:09:07;95525.47;;;7.16;33.70
9225;BME280;4647;48.072;11.616;2023-04-05T10:11:41;95536.63;;;7.21;35.27
9225;BME280;4647;48.072;11.616;2023-04-05T10:14:11;95517.38;;;7.12;33.93
9225;BME280;4647;48.072;11.616;2023-04-05T10:16:58;95520.13;;;7.51;34.17
9225;BME280;4647;48.072;11.616;2023-04-05T10:19:39;95528.88;;;6.98;36.88
9225;BME280;4647;48.072;11.616;2023-04-05T10:22:14;95520.97;;;6.47;36.32
9225;BME280;4647;48.072;11.616;2023-04-05T10:24:51;95521.41;;;5.94;37.66
9225;BME280;4647;48.072;11.616;2023-04-05T10:27:29;95514.56;;;5.19;39.55
9225;BME280;4647;48.072;11.616;2023-04-05T10:32:52;95421.34;;;4.08;40.54
9225;BME280;4647;48.072;11.616;2023-04-05T10:35:30;95345.19;;;3.83;39.15
9225;BME280;4647;48.072;11.616;2023-04-05T10:56:33;95340.22;;;4.15;38.88
9225;BME280;4647;48.072;11.616;2023-04-05T10:59:03;95419.88;;;5.26;36.61
9225;BME280;4647;48.072;11.616;2023-04-05T11:01:31;95499.97;;;6.08;37.17
9225;BME280;4647;48.072;11.616;2023-04-05T11:04:10;95496.13;;;6.06;37.29
9225;BME280;4647;48.072;11.616;2023-04-05T11:06:38;95498.50;;;6.18;37.49
9225;BME280;4647;48.072;11.616;2023-04-05T11:09:10;95492.69;;;6.12;37.48
9225;BME280;4647;48.072;11.616;2023-04-05T11:11:44;95492.94;;;5.90;37.66
9225;BME280;4647;48.072;11.616;2023-04-05T11:14:20;95478.69;;;5.38;37.25
9225;BME280;4647;48.072;11.616;2023-04-05T11:16:52;95484.44;;;5.88;37.78
9225;BME280;4647;48.072;11.616;2023-04-05T11:19:48;95483.75;;;5.94;37.48
9225;BME280;4647;48.072;11.616;2023-04-05T11:22:24;95487.38;;;6.20;36.54
9225;BME280;4647;48.072;11.616;2023-04-05T11:24:55;95479.47;;;6.55;36.60
9225;BME280;4647;48.072;11.616;2023-04-05T11:27:29;95458.19;;;6.25;37.66
9225;BME280;4647;48.072;11.616;2023-04-05T11:29:59;95488.94;;;6.28;37.09
9225;BME280;4647;48.072;11.616;2023-04-05T11:32:38;95485.31;;;5.95;36.83
9225;BME280;4647;48.072;11.616;2023-04-05T11:35:13;95488.47;;;5.64;37.08
9225;BME280;4647;48.072;11.616;2023-04-05T11:37:55;95488.88;;;5.66;37.11
9225;BME280;4647;48.072;11.616;2023-04-05T11:40:33;95484.19;;;6.03;36.55
9225;BME280;4647;48.072;11.616;2023-04-05T11:43:07;95480.19;;;6.41;36.26
9225;BME280;4647;48.072;11.616;2023-04-05T11:45:37;95487.84;;;5.81;37.77
9225;BME280;4647;48.072;11.616;2023-04-05T11:48:07;95486.53;;;5.61;37.23
9225;BME280;4647;48.072;11.616;2023-04-05T11:50:37;95481.22;;;5.68;37.58
9225;BME280;4647;48.072;11.616;2023-04-05T11:53:10;95468.09;;;6.10;36.12
9225;BME280;4647;48.072;11.616;2023-04-05T11:55:39;95467.94;;;6.58;35.10
9225;BME280;4647;48.072;11.616;2023-04-05T11:58:15;95464.59;;;6.86;35.04
9225;BME280;4647;48.072;11.616;2023-04-05T12:00:46;95464.91;;;6.63;35.30
9225;BME280;4647;48.072;11.616;2023-04-05T12:03:23;95463.84;;;7.07;35.01
9225;BME280;4647;48.072;11.616;2023-04-05T12:05:54;95466.75;;;6.52;33.99
9225;BME280;4647;48.072;11.616;2023-04-05T12:08:24;95459.91;;;6.65;35.68
9225;BME280;4647;48.072;11.616;2023-04-05T12:11:06;95471.78;;;6.61;35.52
9225;BME280;4647;48.072;11.616;2023-04-05T12:13:38;95455.81;;;7.18;34.72
9225;BME280;4647;48.072;11.616;2023-04-05T12:16:07;95453.50;;;7.23;34.30
9225;BME280;4647;48.072;11.616;2023-04-05T12:18:36;95442.34;;;7.64;33.45
9225;BME280;4647;48.072;11.616;2023-04-05T12:21:07;95460.38;;;8.20;32.45
9225;BME280;4647;48.072;11.616;2023-04-05T12:23:36;95455.72;;;8.28;33.03
9225;BME280;4647;48.072;11.616;2023-04-05T12:26:06;95450.44;;;7.50;34.42
9225;BME280;4647;48.072;11.616;2023-04-05T12:28:52;95454.28;;;7.63;34.70
9225;BME280;4647;48.072;11.616;2023-04-05T12:31:37;95452.31;;;7.99;34.51
9225;BME280;4647;48.072;11.616;2023-04-05T12:34:06;95455.75;;;7.03;35.07
9225;BME280;4647;48.072;11.616;2023-04-05T12:36:35;95437.28;;;7.09;36.60
9225;BME280;4647;48.072;11.616;2023-04-05T12:39:05;95462.78;;;6.18;36.65
9225;BME280;4647;48.072;11.616;2023-04-05T12:41:35;95448.56;;;6.17;37.41
9225;BME280;4647;48.072;11.616;2023-04-05T12:44:14;95451.31;;;6.35;38.45
9225;BME280;4647;48.072;11.616;2023-04-05T12:46:44;95442.13;;;6.43;38.80
9225;BME280;4647;48.072;11.616;2023-04-05T12:49:14;95453.69;;;6.47;37.39
9225;BME280;4647;48.072;11.616;2023-04-05T12:51:44;95443.38;;;5.91;39.11
9225;BME280;4647;48.072;11.616;2023-04-05T12:54:13;95444.16;;;5.91;39.33
9225;BME280;4647;48.072;11.616;2023-04-05T12:56:42;95441.13;;;6.87;39.16
9225;BME280;4647;48.072;11.616;2023-04-05T12:59:13;95439.22;;;6.91;39.07
9225;BME280;4647;48.072;11.616;2023-04-05T13:01:42;95444.34;;;6.27;37.56
9225;BME280;4647;48.072;11.616;2023-04-05T13:04:10;95445.19;;;5.76;38.15
9225;BME280;4647;48.072;11.616;2023-04-05T13:06:39;95441.22;;;5.59;38.54
9225;BME280;4647;48.072;11.616;2023-04-05T13:09:07;95433.31;;;5.80;39.25
9225;BME280;4647;48.072;11.616;2023-04-05T13:11:35;95436.97;;;6.09;38.58
9225;BME280;4647;48.072;11.616;2023-04-05T13:14:04;95446.16;;;6.05;39.58
9225;BME280;4647;48.072;11.616;2023-04-05T13:16:35;95437.28;;;5.94;38.94
9225;BME280;4647;48.072;11.616;2023-04-05T13:19:04;95427.03;;;6.21;38.94
9225;BME280;4647;48.072;11.616;2023-04-05T13:21:32;95424.06;;;6.43;38.62
9225;BME280;4647;48.072;11.616;2023-04-05T13:24:00;95420.25;;;6.62;37.04
9225;BME280;4647;48.072;11.616;2023-04-05T13:26:29;95431.00;;;6.55;36.92
9225;BME280;4647;48.072;11.616;2023-04-05T13:28:58;95428.00;;;6.78;36.49
9225;BME280;4647;48.072;11.616;2023-04-05T13:31:28;95421.91;;;6.95;37.19
9225;BME280;4647;48.072;11.616;2023-04-05T13:34:00;95420.34;;;7.01;35.93
9225;BME280;4647;48.072;11.616;2023-04-05T13:36:28;95416.13;;;6.97;35.58
9225;BME280;4647;48.072;11.616;2023-04-05T13:38:57;95417.69;;;7.19;35.25
9225;BME280;4647;48.072;11.616;2023-04-05T13:41:25;95418.00;;;6.86;36.41
9225;BME280;4647;48.072;11.616;2023-04-05T13:43:53;95401.16;;;7.17;36.05
9225;BME280;4647;48.072;11.616;2023-04-05T13:46:22;95411.88;;;7.85;34.42
9225;BME280;4647;48.072;11.616;2023-04-05T13:48:50;95411.16;;;7.63;35.72
9225;BME280;4647;48.072;11.616;2023-04-05T13:51:21;95407.66;;;7.09;35.90
9225;BME280;4647;48.072;11.616;2023-04-05T13:53:52;95410.38;;;7.16;36.47
9225;BME280;4647;48.072;11.616;2023-04-05T13:56:21;95409.16;;;6.74;36.75
9225;BME280;4647;48.072;11.616;2023-04-05T13:58:50;95416.09;;;6.83;36.13